createdAt,value
2022-11-16T00:01:20.732Z,15.70
2022-11-16T00:03:52.277Z,15.60
2022-11-16T00:06:22.624Z,15.80
2022-11-16T00:09:13.843Z,15.70
2022-11-16T00:11:52.674Z,15.50
2022-11-16T00:14:23.329Z,15.60
2022-11-16T00:16:53.777Z,15.80
2022-11-16T00:19:24.249Z,15.60
2022-11-16T00:21:55.770Z,15.60
2022-11-16T00:24:26.196Z,15.50
2022-11-16T00:26:57.410Z,15.60
2022-11-16T00:29:28.174Z,15.60
2022-11-16T00:31:58.371Z,15.70
2022-11-16T00:34:30.211Z,15.70
2022-11-16T00:37:00.452Z,15.70
2022-11-16T00:39:30.785Z,15.50
2022-11-16T00:42:00.762Z,15.60
2022-11-16T00:44:30.919Z,15.70
2022-11-16T00:47:01.629Z,15.70
2022-11-16T00:49:31.907Z,15.50
2022-11-16T00:52:02.053Z,15.50
2022-11-16T00:54:32.736Z,15.60
2022-11-16T00:57:03.271Z,15.60
2022-11-16T00:59:34.512Z,15.40
2022-11-16T01:02:05.258Z,15.50
2022-11-16T01:04:35.820Z,15.50
2022-11-16T01:07:05.984Z,15.40
2022-11-16T01:09:36.025Z,15.40
2022-11-16T01:12:13.624Z,15.40
2022-11-16T01:14:51.169Z,15.40
2022-11-16T01:17:22.192Z,15.30
2022-11-16T01:19:54.076Z,15.50
2022-11-16T01:22:24.351Z,15.60
2022-11-16T01:24:54.561Z,16.00
2022-11-16T01:27:25.195Z,16.30
2022-11-16T01:29:57.148Z,16.50
2022-11-16T01:32:27.380Z,16.60
2022-11-16T01:34:57.773Z,16.90
2022-11-16T01:37:34.366Z,16.90
2022-11-16T01:40:06.806Z,17.00
2022-11-16T01:42:37.325Z,17.10
2022-11-16T01:45:23.460Z,17.20
2022-11-16T01:47:59.274Z,17.20
2022-11-16T01:50:33.964Z,17.40
2022-11-16T01:53:05.680Z,17.40
2022-11-16T01:55:45.334Z,17.40
2022-11-16T01:58:36.609Z,17.50
2022-11-16T02:01:33.131Z,17.60
2022-11-16T02:04:05.342Z,17.70
2022-11-16T02:07:04.756Z,17.60
2022-11-16T02:09:57.140Z,17.90
2022-11-16T02:13:06.010Z,18.00
2022-11-16T02:15:45.794Z,17.90
2022-11-16T02:19:03.517Z,18.00
2022-11-16T02:21:59.081Z,18.10
2022-11-16T02:24:42.670Z,16.50
2022-11-16T02:27:33.053Z,14.40
2022-11-16T02:55:34.166Z,13.80
2022-11-16T02:58:06.107Z,15.10
2022-11-16T03:00:53.645Z,14.60
2022-11-16T03:03:30.655Z,14.30
2022-11-16T03:06:05.124Z,14.30
2022-11-16T03:08:47.914Z,15.10
2022-11-16T03:11:36.651Z,15.30
2022-11-16T03:14:16.697Z,15.30
2022-11-16T03:16:50.355Z,15.30
2022-11-16T03:19:24.258Z,15.50
2022-11-16T03:21:59.455Z,15.60
2022-11-16T03:24:30.601Z,15.70
2022-11-16T03:27:19.401Z,15.80
2022-11-16T03:29:57.835Z,15.90
2022-11-16T03:32:50.740Z,16.00
2022-11-16T03:35:31.597Z,16.20
2022-11-16T03:38:02.270Z,16.30
2022-11-16T03:40:33.809Z,16.40
2022-11-16T03:43:05.797Z,16.50
2022-11-16T03:45:37.287Z,16.60
2022-11-16T03:48:09.284Z,16.70
2022-11-16T03:50:39.811Z,16.80
2022-11-16T03:53:12.411Z,16.80
2022-11-16T03:55:47.006Z,16.70
2022-11-16T03:58:20.845Z,17.00
2022-11-16T04:00:51.102Z,17.20
2022-11-16T04:03:21.727Z,17.40
2022-11-16T04:06:13.463Z,17.40
2022-11-16T04:09:02.967Z,17.40
2022-11-16T04:11:51.352Z,17.50
2022-11-16T04:14:41.074Z,17.40
2022-11-16T04:17:33.827Z,17.40
2022-11-16T04:20:23.175Z,17.40
2022-11-16T04:23:36.223Z,17.20
2022-11-16T04:26:09.646Z,17.40
2022-11-16T04:28:43.992Z,17.80
2022-11-16T04:31:34.801Z,17.60
2022-11-16T04:34:37.526Z,17.40
2022-11-16T04:37:33.586Z,17.40
2022-11-16T04:40:10.841Z,17.40
2022-11-16T04:42:47.212Z,17.30
2022-11-16T04:45:36.757Z,17.30
2022-11-16T04:48:08.502Z,17.30
2022-11-16T04:50:40.906Z,17.40
2022-11-16T04:53:24.696Z,17.20
2022-11-16T04:56:04.873Z,17.30
2022-11-16T04:58:44.632Z,17.20
2022-11-16T05:01:19.543Z,17.20
2022-11-16T05:03:52.630Z,17.10
2022-11-16T05:06:25.644Z,17.10
2022-11-16T05:09:02.558Z,17.10
2022-11-16T05:11:37.295Z,17.10
2022-11-16T05:14:11.608Z,17.10
2022-11-16T05:16:48.740Z,17.10
2022-11-16T05:19:39.569Z,17.00
2022-11-16T05:22:10.565Z,17.00
2022-11-16T05:24:45.267Z,17.00
2022-11-16T05:27:18.599Z,17.00
2022-11-16T05:29:50.972Z,17.00
2022-11-16T05:32:29.912Z,17.00
2022-11-16T05:35:09.898Z,17.00
2022-11-16T05:37:43.327Z,17.00
2022-11-16T05:40:17.873Z,17.00
2022-11-16T05:43:00.939Z,17.10
2022-11-16T05:45:36.964Z,17.00
2022-11-16T05:48:10.663Z,17.10
2022-11-16T05:50:47.851Z,17.10
2022-11-16T05:53:27.817Z,17.10
2022-11-16T05:55:59.560Z,17.10
2022-11-16T05:58:35.397Z,17.10
2022-11-16T06:01:09.496Z,17.10
2022-11-16T06:03:43.198Z,17.10
2022-11-16T06:06:36.010Z,17.10
2022-11-16T06:09:11.588Z,17.10
2022-11-16T06:11:47.700Z,17.20
2022-11-16T06:14:24.875Z,17.20
2022-11-16T06:17:03.146Z,17.20
2022-11-16T06:19:36.716Z,17.20
2022-11-16T06:22:09.019Z,17.30
2022-11-16T06:24:43.129Z,17.30
2022-11-16T06:27:18.747Z,17.30
2022-11-16T06:29:53.644Z,17.30
2022-11-16T06:32:24.541Z,17.40
2022-11-16T06:34:56.802Z,17.40
2022-11-16T06:37:27.950Z,17.50
2022-11-16T06:40:01.355Z,17.40
2022-11-16T06:42:37.082Z,17.50
2022-11-16T06:45:09.611Z,17.50
2022-11-16T06:47:44.882Z,17.50
2022-11-16T06:50:16.720Z,17.50
2022-11-16T06:52:51.777Z,17.50
2022-11-16T06:55:23.339Z,17.60
2022-11-16T06:57:56.341Z,17.60
2022-11-16T07:00:27.693Z,17.60
2022-11-16T07:03:05.950Z,17.60
2022-11-16T07:05:37.781Z,17.70
2022-11-16T07:08:12.410Z,17.70
2022-11-16T07:10:44.359Z,17.70
2022-11-16T07:13:18.811Z,17.70
2022-11-16T07:15:52.184Z,17.80
2022-11-16T07:18:26.324Z,17.80
2022-11-16T07:21:01.175Z,17.90
2022-11-16T07:23:33.130Z,17.90
2022-11-16T07:26:20.127Z,17.90
2022-11-16T07:29:02.211Z,17.90
2022-11-16T07:31:34.316Z,18.00
2022-11-16T07:34:46.477Z,18.00
2022-11-16T07:37:19.778Z,18.00
2022-11-16T07:39:53.500Z,18.00
2022-11-16T07:42:29.408Z,18.00
2022-11-16T07:45:09.669Z,18.00
2022-11-16T07:47:45.538Z,18.10
2022-11-16T07:50:25.452Z,18.00
2022-11-16T07:52:58.153Z,18.10
2022-11-16T07:58:05.620Z,18.10
2022-11-16T08:00:36.056Z,18.10
2022-11-16T08:03:18.191Z,18.20
2022-11-16T08:06:01.114Z,18.10
2022-11-16T08:08:31.956Z,18.10
2022-11-16T08:11:03.676Z,18.20
2022-11-16T08:13:37.271Z,18.10
2022-11-16T08:16:14.858Z,18.10
2022-11-16T08:18:47.992Z,18.20
2022-11-16T08:21:19.646Z,18.10
2022-11-16T08:23:53.826Z,18.20
2022-11-16T08:26:27.252Z,18.20
2022-11-16T08:29:03.249Z,18.20
2022-11-16T08:31:37.314Z,18.20
2022-11-16T08:34:14.844Z,18.20
2022-11-16T08:36:49.572Z,18.20
2022-11-16T08:39:22.163Z,18.20
2022-11-16T08:41:53.583Z,18.20
2022-11-16T08:44:24.527Z,18.20
2022-11-16T08:46:57.982Z,18.30
2022-11-16T08:49:36.150Z,18.30
2022-11-16T08:52:07.096Z,18.30
2022-11-16T08:54:38.140Z,18.30
2022-11-16T08:57:08.602Z,18.30
2022-11-16T08:59:40.608Z,18.30
2022-11-16T09:02:15.319Z,18.30
2022-11-16T09:04:46.260Z,18.30
2022-11-16T09:07:16.846Z,18.30
2022-11-16T09:09:47.167Z,18.30
2022-11-16T09:12:17.382Z,18.30
2022-11-16T09:14:48.081Z,18.30
2022-11-16T09:17:23.128Z,18.40
2022-11-16T09:19:53.592Z,18.40
2022-11-16T09:22:23.541Z,18.40
2022-11-16T09:24:55.133Z,18.40
2022-11-16T09:27:25.629Z,18.40
2022-11-16T09:29:56.016Z,18.40
2022-11-16T09:32:26.228Z,18.40
2022-11-16T09:34:57.894Z,18.40
2022-11-16T09:37:28.153Z,18.40
2022-11-16T09:39:59.437Z,18.30
2022-11-16T09:42:57.300Z,18.40
2022-11-16T09:45:49.087Z,18.40
2022-11-16T09:48:19.488Z,18.40
2022-11-16T09:50:52.571Z,18.40
2022-11-16T09:53:34.983Z,18.40
2022-11-16T09:56:17.851Z,18.30
2022-11-16T09:59:17.774Z,18.30
2022-11-16T10:01:54.325Z,18.40
2022-11-16T10:04:58.525Z,18.30
2022-11-16T10:07:34.860Z,18.30
2022-11-16T10:10:05.286Z,18.30
2022-11-16T10:12:44.854Z,18.30
2022-11-16T10:15:39.855Z,18.40
2022-11-16T10:18:18.315Z,18.20
2022-11-16T10:20:56.466Z,18.30
2022-11-16T10:23:54.506Z,18.30
2022-11-16T10:26:52.613Z,18.30
2022-11-16T10:29:44.232Z,18.30
2022-11-16T10:32:14.885Z,18.20
2022-11-16T10:34:55.216Z,18.20
2022-11-16T10:37:28.267Z,18.30
2022-11-16T10:39:58.468Z,18.20
2022-11-16T10:42:37.721Z,18.20
2022-11-16T10:45:14.057Z,18.30
2022-11-16T10:48:14.276Z,18.30
2022-11-16T10:50:51.395Z,18.30
2022-11-16T10:53:36.145Z,18.20
2022-11-16T10:56:20.138Z,18.20
2022-11-16T10:59:07.783Z,19.00
2022-11-16T11:04:33.659Z,21.50
2022-11-16T11:07:33.997Z,21.60
2022-11-16T11:10:15.912Z,21.60
2022-11-16T11:12:48.013Z,21.60
2022-11-16T11:15:27.324Z,21.70
2022-11-16T11:18:19.657Z,21.60
2022-11-16T11:20:56.240Z,22.10
2022-11-16T11:23:27.085Z,21.70
2022-11-16T11:25:59.486Z,22.40
2022-11-16T11:28:36.429Z,22.10
2022-11-16T11:32:11.219Z,22.20
2022-11-16T11:34:56.399Z,22.50
2022-11-16T11:37:45.072Z,22.70
2022-11-16T11:40:23.562Z,22.60
2022-11-16T11:43:00.240Z,21.90
2022-11-16T11:45:58.263Z,21.60
2022-11-16T11:49:06.812Z,21.40
2022-11-16T11:51:47.578Z,21.50
2022-11-16T11:54:34.287Z,21.50
2022-11-16T11:57:09.826Z,21.30
2022-11-16T11:59:52.176Z,21.10
2022-11-16T12:02:32.410Z,21.10
2022-11-16T12:05:18.657Z,21.10
2022-11-16T12:08:19.119Z,21.30
2022-11-16T12:10:56.351Z,21.10
2022-11-16T12:13:31.294Z,21.10
2022-11-16T12:16:34.418Z,20.90
2022-11-16T12:19:33.105Z,20.80
2022-11-16T12:22:15.665Z,20.70
2022-11-16T12:25:27.129Z,20.80
2022-11-16T12:28:21.704Z,20.60
2022-11-16T12:31:30.239Z,20.50
2022-11-16T12:34:03.301Z,20.50
2022-11-16T12:36:54.422Z,20.40
2022-11-16T12:39:48.663Z,20.30
2022-11-16T12:42:27.888Z,20.30
2022-11-16T12:45:30.515Z,20.10
2022-11-16T12:48:37.694Z,20.10
2022-11-16T12:51:18.435Z,20.30
2022-11-16T12:54:07.866Z,20.20
2022-11-16T12:57:43.842Z,20.10
2022-11-16T13:00:21.092Z,19.90
2022-11-16T13:03:10.302Z,19.90
2022-11-16T13:05:58.659Z,19.90
2022-11-16T13:08:39.301Z,19.80
2022-11-16T13:11:33.649Z,19.70
2022-11-16T13:14:08.881Z,19.80
2022-11-16T13:16:39.330Z,19.70
2022-11-16T13:19:15.728Z,19.60
2022-11-16T13:22:15.709Z,19.60
2022-11-16T13:25:06.068Z,19.50
2022-11-16T13:28:29.317Z,19.50
2022-11-16T13:31:12.909Z,19.50
2022-11-16T13:33:56.971Z,19.40
2022-11-16T13:36:43.100Z,19.40
2022-11-16T13:39:21.839Z,19.30
2022-11-16T13:42:12.869Z,19.30
2022-11-16T13:44:51.559Z,19.20
2022-11-16T13:47:27.478Z,19.30
2022-11-16T13:50:05.458Z,19.20
2022-11-16T13:53:57.691Z,19.10
2022-11-16T13:55:52.210Z,19.20
2022-11-16T13:58:23.085Z,19.10
2022-11-16T14:01:16.807Z,19.10
2022-11-16T14:03:53.659Z,19.10
2022-11-16T14:06:30.113Z,19.10
2022-11-16T14:09:03.488Z,19.10
2022-11-16T14:11:39.067Z,19.00
2022-11-16T14:14:16.936Z,19.00
2022-11-16T14:16:49.085Z,18.90
2022-11-16T14:19:50.162Z,18.90
2022-11-16T14:22:35.381Z,18.90
2022-11-16T14:25:37.419Z,18.90
2022-11-16T14:28:34.752Z,18.80
2022-11-16T14:31:27.503Z,18.80
2022-11-16T14:34:00.314Z,18.80
2022-11-16T14:36:54.801Z,18.80
2022-11-16T14:39:42.417Z,18.80
2022-11-16T14:42:54.429Z,18.70
2022-11-16T14:45:28.732Z,18.70
2022-11-16T14:48:18.384Z,18.70
2022-11-16T14:51:08.366Z,18.70
2022-11-16T14:53:52.375Z,18.60
2022-11-16T14:56:31.609Z,18.60
2022-11-16T14:59:03.986Z,18.60
2022-11-16T15:01:48.294Z,18.60
2022-11-16T15:04:27.769Z,18.60
2022-11-16T15:07:04.780Z,18.50
2022-11-16T15:09:52.114Z,18.50
2022-11-16T15:12:43.588Z,18.50
2022-11-16T15:15:16.101Z,18.50
2022-11-16T15:18:02.313Z,18.40
2022-11-16T15:20:35.825Z,18.40
2022-11-16T15:23:06.974Z,18.40
2022-11-16T15:25:53.667Z,18.40
2022-11-16T15:28:35.785Z,18.30
2022-11-16T15:31:07.280Z,18.30
2022-11-16T15:33:44.449Z,18.30
2022-11-16T15:36:39.792Z,18.30
2022-11-16T15:39:24.153Z,18.30
2022-11-16T15:42:00.472Z,18.30
2022-11-16T15:44:37.068Z,18.30
2022-11-16T15:47:13.199Z,18.30
2022-11-16T15:49:49.308Z,18.20
2022-11-16T15:52:51.572Z,18.20
2022-11-16T15:55:41.320Z,18.20
2022-11-16T15:58:33.934Z,18.20
2022-11-16T16:01:13.338Z,18.10
2022-11-16T16:04:08.944Z,18.10
2022-11-16T16:06:57.457Z,18.10
2022-11-16T16:09:35.768Z,18.10
2022-11-16T16:12:25.128Z,18.10
2022-11-16T16:15:01.478Z,18.10
2022-11-16T16:17:37.901Z,18.10
2022-11-16T16:20:21.501Z,18.10
2022-11-16T16:22:58.419Z,18.00
2022-11-16T16:25:35.099Z,18.10
2022-11-16T16:28:11.502Z,18.00
2022-11-16T16:30:47.402Z,18.00
2022-11-16T16:33:24.634Z,18.00
2022-11-16T16:35:55.971Z,18.00
2022-11-16T16:38:29.201Z,17.90
2022-11-16T16:41:03.788Z,17.90
2022-11-16T16:43:37.290Z,17.90
2022-11-16T16:46:20.298Z,17.90
2022-11-16T16:48:59.530Z,17.90
2022-11-16T16:51:35.661Z,17.90
2022-11-16T16:54:08.909Z,17.90
2022-11-16T16:56:39.944Z,17.80
2022-11-16T16:59:10.758Z,17.80
2022-11-16T17:01:47.254Z,17.80
2022-11-16T17:04:20.813Z,17.80
2022-11-16T17:06:58.892Z,17.80
2022-11-16T17:09:32.532Z,17.80
2022-11-16T17:12:05.525Z,17.80
2022-11-16T17:14:41.656Z,17.80
2022-11-16T17:17:14.655Z,17.70
2022-11-16T17:19:48.114Z,17.80
2022-11-16T17:22:20.083Z,17.70
2022-11-16T17:24:54.723Z,17.70
2022-11-16T17:27:39.668Z,17.70
2022-11-16T17:30:19.633Z,17.70
2022-11-16T17:32:49.800Z,17.60
2022-11-16T17:35:25.833Z,17.70
2022-11-16T17:38:11.948Z,17.60
2022-11-16T17:40:51.180Z,17.60
2022-11-16T17:43:26.569Z,17.70
2022-11-16T17:46:07.312Z,17.60
2022-11-16T17:48:40.928Z,17.60
2022-11-16T17:51:18.413Z,17.60
2022-11-16T17:53:54.286Z,17.50
2022-11-16T17:56:27.319Z,17.60
2022-11-16T17:58:59.519Z,17.60
2022-11-16T18:01:35.963Z,17.50
2022-11-16T18:04:08.225Z,17.50
2022-11-16T18:06:39.728Z,17.50
2022-11-16T18:09:13.367Z,17.50
2022-11-16T18:11:49.495Z,17.50
2022-11-16T18:14:34.613Z,17.50
2022-11-16T18:17:07.782Z,17.50
2022-11-16T18:19:40.855Z,17.40
2022-11-16T18:22:22.854Z,17.50
2022-11-16T18:25:00.599Z,17.40
2022-11-16T18:27:31.596Z,17.40
2022-11-16T18:30:07.479Z,17.40
2022-11-16T18:32:39.210Z,17.30
2022-11-16T18:35:11.892Z,17.40
2022-11-16T18:37:44.909Z,17.30
2022-11-16T18:40:21.630Z,17.40
2022-11-16T18:42:57.563Z,17.40
2022-11-16T18:45:34.229Z,17.30
2022-11-16T18:48:10.903Z,17.30
2022-11-16T18:50:55.984Z,17.30
2022-11-16T18:53:27.224Z,17.30
2022-11-16T18:55:59.974Z,17.40
2022-11-16T18:58:49.839Z,17.30
2022-11-16T19:01:31.984Z,17.20
2022-11-16T19:04:03.216Z,17.30
2022-11-16T19:06:33.694Z,17.30
2022-11-16T19:09:08.213Z,17.20
2022-11-16T19:11:41.392Z,17.20
2022-11-16T19:14:17.873Z,17.30
2022-11-16T19:16:57.132Z,17.20
2022-11-16T19:19:32.242Z,17.20
2022-11-16T19:22:05.193Z,17.20
2022-11-16T19:24:41.208Z,17.20
2022-11-16T19:27:17.708Z,17.20
2022-11-16T19:29:51.384Z,17.10
2022-11-16T19:32:27.373Z,17.20
2022-11-16T19:35:00.650Z,17.10
2022-11-16T19:37:31.182Z,17.20
2022-11-16T19:40:04.413Z,17.20
2022-11-16T19:42:37.271Z,17.00
2022-11-16T19:45:19.998Z,17.00
2022-11-16T19:47:58.695Z,17.00
2022-11-16T19:50:34.609Z,17.10
2022-11-16T19:53:10.507Z,17.10
2022-11-16T19:55:52.305Z,17.10
2022-11-16T19:58:36.147Z,17.00
2022-11-16T20:01:19.748Z,17.00
2022-11-16T20:03:51.237Z,17.10
2022-11-16T20:06:31.792Z,17.10
2022-11-16T20:09:05.077Z,17.00
2022-11-16T20:11:41.173Z,16.90
2022-11-16T20:14:15.961Z,16.90
2022-11-16T20:17:00.554Z,16.90
2022-11-16T20:19:39.769Z,17.00
2022-11-16T20:22:13.418Z,16.90
2022-11-16T20:24:49.518Z,16.90
2022-11-16T20:27:30.495Z,16.90
2022-11-16T20:30:09.550Z,17.00
2022-11-16T20:32:53.549Z,16.90
2022-11-16T20:35:29.538Z,16.90
2022-11-16T20:38:02.577Z,17.00
2022-11-16T20:40:38.519Z,16.90
2022-11-16T20:43:11.802Z,16.90
2022-11-16T20:45:45.093Z,16.90
2022-11-16T20:48:15.249Z,16.90
2022-11-16T20:50:59.559Z,16.80
2022-11-16T20:53:31.677Z,16.80
2022-11-16T20:56:05.730Z,16.80
2022-11-16T20:58:39.280Z,16.80
2022-11-16T21:01:12.080Z,16.80
2022-11-16T21:03:43.710Z,16.90
2022-11-16T21:06:20.425Z,16.80
2022-11-16T21:08:53.585Z,16.70
2022-11-16T21:11:27.764Z,16.80
2022-11-16T21:14:16.456Z,16.80
2022-11-16T21:16:49.403Z,16.80
2022-11-16T21:19:19.797Z,16.70
2022-11-16T21:21:56.665Z,16.70
2022-11-16T21:24:28.699Z,16.70
2022-11-16T21:26:58.814Z,16.60
2022-11-16T21:29:35.853Z,16.70
2022-11-16T21:32:12.069Z,16.70
2022-11-16T21:34:44.965Z,16.80
2022-11-16T21:37:21.581Z,16.70
2022-11-16T21:39:53.343Z,16.70
2022-11-16T21:42:23.402Z,16.50
2022-11-16T21:44:59.264Z,16.70
2022-11-16T21:47:33.137Z,16.60
2022-11-16T21:50:30.725Z,16.60
2022-11-16T21:53:05.010Z,16.60
2022-11-16T21:55:38.594Z,16.70
2022-11-16T21:58:14.919Z,16.60
2022-11-16T22:00:51.129Z,16.50
2022-11-16T22:03:27.256Z,16.50
2022-11-16T22:06:16.668Z,16.50
2022-11-16T22:08:47.447Z,16.50
2022-11-16T22:11:23.758Z,16.50
2022-11-16T22:14:00.045Z,16.60
2022-11-16T22:16:33.087Z,16.50
2022-11-16T22:19:06.685Z,16.70
2022-11-16T22:21:42.891Z,16.50
2022-11-16T22:24:19.084Z,16.50
2022-11-16T22:26:55.485Z,16.40
2022-11-16T22:29:31.921Z,16.60
2022-11-16T22:32:05.484Z,16.50
2022-11-16T22:34:41.650Z,16.30
2022-11-16T22:37:15.468Z,16.40
2022-11-16T22:39:51.698Z,16.40
2022-11-16T22:42:27.844Z,16.50
2022-11-16T22:44:58.053Z,16.40
2022-11-16T22:47:28.165Z,16.40
2022-11-16T22:49:58.127Z,16.40
2022-11-16T22:52:30.650Z,16.50
2022-11-16T22:55:06.898Z,16.30
2022-11-16T22:57:40.537Z,16.40
2022-11-16T23:00:11.471Z,16.40
2022-11-16T23:02:43.275Z,16.40
2022-11-16T23:05:17.428Z,16.30
2022-11-16T23:07:53.574Z,16.30
2022-11-16T23:10:35.646Z,16.40
2022-11-16T23:13:28.524Z,16.30
2022-11-16T23:16:12.010Z,16.40
2022-11-16T23:18:44.119Z,16.40
2022-11-16T23:21:32.337Z,16.50
2022-11-16T23:24:23.013Z,16.30
2022-11-16T23:27:11.541Z,16.20
2022-11-16T23:29:52.019Z,16.20
2022-11-16T23:32:37.009Z,16.20
2022-11-16T23:35:13.520Z,16.20
2022-11-16T23:37:56.048Z,16.20
2022-11-16T23:40:31.390Z,16.20
2022-11-16T23:43:20.042Z,16.20
2022-11-16T23:45:59.408Z,16.30
2022-11-16T23:48:35.856Z,16.10
2022-11-16T23:51:09.005Z,16.20
2022-11-16T23:53:42.614Z,16.30
2022-11-16T23:56:18.961Z,16.10
2022-11-16T23:58:52.385Z,16.10
